sensor_id;sensor_type;location;lat;lon;timestamp;P1;durP1;ratioP1;P2;durP2;ratioP2
68995;SDS011;56056;48.990;12.146;2023-01-19T00:01:49;15.73;;;8.25;;
68995;SDS011;56056;48.990;12.146;2023-01-19T00:04:15;32.17;;;16.27;;
68995;SDS011;56056;48.990;12.146;2023-01-19T00:06:41;23.20;;;17.85;;
68995;SDS011;56056;48.990;12.146;2023-01-19T00:09:06;16.55;;;14.00;;
68995;SDS011;56056;48.990;12.146;2023-01-19T00:11:32;24.08;;;20.85;;
68995;SDS011;56056;48.990;12.146;2023-01-19T00:13:58;31.83;;;15.45;;
68995;SDS011;56056;48.990;12.146;2023-01-19T00:16:25;9.25;;;7.80;;
68995;SDS011;56056;48.990;12.146;2023-01-19T00:18:50;6.28;;;5.57;;
68995;SDS011;56056;48.990;12.146;2023-01-19T00:21:16;3.45;;;3.25;;
68995;SDS011;56056;48.990;12.146;2023-01-19T00:23:43;20.67;;;18.43;;
68995;SDS011;56056;48.990;12.146;2023-01-19T00:26:11;21.38;;;12.65;;
68995;SDS011;56056;48.990;12.146;2023-01-19T00:28:37;21.08;;;9.20;;
68995;SDS011;56056;48.990;12.146;2023-01-19T00:31:03;14.38;;;13.05;;
68995;SDS011;56056;48.990;12.146;2023-01-19T00:33:30;13.25;;;8.52;;
68995;SDS011;56056;48.990;12.146;2023-01-19T00:35:55;19.25;;;14.10;;
68995;SDS011;56056;48.990;12.146;2023-01-19T00:38:21;7.33;;;6.70;;
68995;SDS011;56056;48.990;12.146;2023-01-19T00:40:47;20.90;;;9.13;;
68995;SDS011;56056;48.990;12.146;2023-01-19T00:43:13;12.82;;;11.52;;
68995;SDS011;56056;48.990;12.146;2023-01-19T00:45:38;43.88;;;32.17;;
68995;SDS011;56056;48.990;12.146;2023-01-19T00:48:04;32.42;;;29.35;;
68995;SDS011;56056;48.990;12.146;2023-01-19T00:50:31;32.85;;;29.55;;
68995;SDS011;56056;48.990;12.146;2023-01-19T00:52:58;13.25;;;6.45;;
68995;SDS011;56056;48.990;12.146;2023-01-19T00:55:25;9.88;;;9.13;;
68995;SDS011;56056;48.990;12.146;2023-01-19T00:57:54;51.72;;;40.28;;
68995;SDS011;56056;48.990;12.146;2023-01-19T01:00:20;10.75;;;9.50;;
68995;SDS011;56056;48.990;12.146;2023-01-19T01:02:46;26.35;;;22.15;;
68995;SDS011;56056;48.990;12.146;2023-01-19T01:05:13;6.65;;;6.15;;
68995;SDS011;56056;48.990;12.146;2023-01-19T01:07:40;8.00;;;5.95;;
68995;SDS011;56056;48.990;12.146;2023-01-19T01:10:07;34.25;;;25.45;;
68995;SDS011;56056;48.990;12.146;2023-01-19T01:12:33;61.67;;;38.65;;
68995;SDS011;56056;48.990;12.146;2023-01-19T01:14:59;14.18;;;9.13;;
68995;SDS011;56056;48.990;12.146;2023-01-19T01:17:25;31.60;;;17.10;;
68995;SDS011;56056;48.990;12.146;2023-01-19T01:19:50;52.35;;;30.08;;
68995;SDS011;56056;48.990;12.146;2023-01-19T01:22:16;35.58;;;18.35;;
68995;SDS011;56056;48.990;12.146;2023-01-19T01:24:43;29.55;;;19.83;;
68995;SDS011;56056;48.990;12.146;2023-01-19T01:27:09;19.77;;;7.95;;
68995;SDS011;56056;48.990;12.146;2023-01-19T01:29:35;27.60;;;14.57;;
68995;SDS011;56056;48.990;12.146;2023-01-19T01:32:01;11.43;;;9.02;;
68995;SDS011;56056;48.990;12.146;2023-01-19T01:34:27;11.43;;;10.10;;
68995;SDS011;56056;48.990;12.146;2023-01-19T01:36:52;20.75;;;10.60;;
68995;SDS011;56056;48.990;12.146;2023-01-19T01:39:18;13.15;;;9.63;;
68995;SDS011;56056;48.990;12.146;2023-01-19T01:41:45;20.95;;;10.00;;
68995;SDS011;56056;48.990;12.146;2023-01-19T01:47:14;20.67;;;10.68;;
68995;SDS011;56056;48.990;12.146;2023-01-19T01:49:42;10.02;;;7.38;;
68995;SDS011;56056;48.990;12.146;2023-01-19T01:52:08;15.05;;;9.48;;
68995;SDS011;56056;48.990;12.146;2023-01-19T01:54:34;48.50;;;28.80;;
68995;SDS011;56056;48.990;12.146;2023-01-19T01:57:02;59.33;;;23.25;;
68995;SDS011;56056;48.990;12.146;2023-01-19T01:59:31;26.65;;;10.32;;
68995;SDS011;56056;48.990;12.146;2023-01-19T02:02:00;18.25;;;9.43;;
68995;SDS011;56056;48.990;12.146;2023-01-19T02:04:48;53.17;;;26.63;;
68995;SDS011;56056;48.990;12.146;2023-01-19T02:07:18;26.23;;;8.93;;
68995;SDS011;56056;48.990;12.146;2023-01-19T02:10:05;14.80;;;10.85;;
68995;SDS011;56056;48.990;12.146;2023-01-19T02:12:51;27.23;;;14.95;;
68995;SDS011;56056;48.990;12.146;2023-01-19T02:15:36;35.70;;;22.33;;
68995;SDS011;56056;48.990;12.146;2023-01-19T02:18:01;14.52;;;8.63;;
68995;SDS011;56056;48.990;12.146;2023-01-19T02:20:27;23.27;;;14.90;;
68995;SDS011;56056;48.990;12.146;2023-01-19T02:22:56;32.20;;;18.83;;
68995;SDS011;56056;48.990;12.146;2023-01-19T02:25:28;31.27;;;12.77;;
68995;SDS011;56056;48.990;12.146;2023-01-19T02:27:53;42.40;;;18.55;;
68995;SDS011;56056;48.990;12.146;2023-01-19T02:30:19;26.83;;;16.10;;
68995;SDS011;56056;48.990;12.146;2023-01-19T02:32:45;16.23;;;7.75;;
68995;SDS011;56056;48.990;12.146;2023-01-19T02:35:11;26.35;;;11.90;;
68995;SDS011;56056;48.990;12.146;2023-01-19T02:37:37;24.60;;;7.00;;
68995;SDS011;56056;48.990;12.146;2023-01-19T02:40:04;15.75;;;11.23;;
68995;SDS011;56056;48.990;12.146;2023-01-19T02:42:35;13.10;;;7.00;;
68995;SDS011;56056;48.990;12.146;2023-01-19T02:45:02;30.88;;;11.60;;
68995;SDS011;56056;48.990;12.146;2023-01-19T02:47:35;5.28;;;2.67;;
68995;SDS011;56056;48.990;12.146;2023-01-19T02:50:02;23.58;;;19.42;;
68995;SDS011;56056;48.990;12.146;2023-01-19T02:52:29;9.10;;;5.43;;
68995;SDS011;56056;48.990;12.146;2023-01-19T02:54:57;13.48;;;9.43;;
68995;SDS011;56056;48.990;12.146;2023-01-19T02:57:36;33.60;;;17.08;;
68995;SDS011;56056;48.990;12.146;2023-01-19T03:00:13;31.58;;;25.10;;
68995;SDS011;56056;48.990;12.146;2023-01-19T03:02:47;51.85;;;29.67;;
68995;SDS011;56056;48.990;12.146;2023-01-19T03:05:22;15.80;;;11.02;;
68995;SDS011;56056;48.990;12.146;2023-01-19T03:07:55;59.38;;;29.58;;
68995;SDS011;56056;48.990;12.146;2023-01-19T03:10:27;46.35;;;21.77;;
68995;SDS011;56056;48.990;12.146;2023-01-19T03:12:58;5.45;;;5.07;;
68995;SDS011;56056;48.990;12.146;2023-01-19T03:15:29;41.92;;;31.30;;
68995;SDS011;56056;48.990;12.146;2023-01-19T03:17:56;21.20;;;10.47;;
68995;SDS011;56056;48.990;12.146;2023-01-19T03:20:24;54.83;;;34.55;;
68995;SDS011;56056;48.990;12.146;2023-01-19T03:22:53;28.92;;;21.27;;
68995;SDS011;56056;48.990;12.146;2023-01-19T03:25:22;44.95;;;15.73;;
68995;SDS011;56056;48.990;12.146;2023-01-19T03:27:49;22.10;;;12.80;;
68995;SDS011;56056;48.990;12.146;2023-01-19T03:30:18;8.93;;;7.60;;
68995;SDS011;56056;48.990;12.146;2023-01-19T03:32:47;13.00;;;7.57;;
68995;SDS011;56056;48.990;12.146;2023-01-19T03:35:15;30.53;;;19.77;;
68995;SDS011;56056;48.990;12.146;2023-01-19T03:37:43;11.02;;;7.93;;
68995;SDS011;56056;48.990;12.146;2023-01-19T03:40:10;24.60;;;11.07;;
68995;SDS011;56056;48.990;12.146;2023-01-19T03:42:36;12.38;;;8.18;;
68995;SDS011;56056;48.990;12.146;2023-01-19T03:45:03;49.22;;;26.30;;
68995;SDS011;56056;48.990;12.146;2023-01-19T03:47:31;40.35;;;28.17;;
68995;SDS011;56056;48.990;12.146;2023-01-19T03:49:57;28.87;;;22.40;;
68995;SDS011;56056;48.990;12.146;2023-01-19T03:52:26;37.00;;;21.00;;
68995;SDS011;56056;48.990;12.146;2023-01-19T03:54:52;51.43;;;19.40;;
68995;SDS011;56056;48.990;12.146;2023-01-19T03:57:18;34.50;;;24.27;;
68995;SDS011;56056;48.990;12.146;2023-01-19T03:59:44;26.55;;;20.60;;
68995;SDS011;56056;48.990;12.146;2023-01-19T04:02:09;37.33;;;22.73;;
68995;SDS011;56056;48.990;12.146;2023-01-19T04:04:36;16.83;;;11.88;;
68995;SDS011;56056;48.990;12.146;2023-01-19T04:07:02;11.23;;;8.47;;
68995;SDS011;56056;48.990;12.146;2023-01-19T04:09:28;8.25;;;7.43;;
68995;SDS011;56056;48.990;12.146;2023-01-19T04:11:53;20.90;;;18.80;;
68995;SDS011;56056;48.990;12.146;2023-01-19T04:14:21;32.53;;;19.67;;
68995;SDS011;56056;48.990;12.146;2023-01-19T04:16:46;8.07;;;7.23;;
68995;SDS011;56056;48.990;12.146;2023-01-19T04:19:12;24.02;;;11.73;;
68995;SDS011;56056;48.990;12.146;2023-01-19T04:21:39;10.48;;;7.35;;
68995;SDS011;56056;48.990;12.146;2023-01-19T04:24:05;11.33;;;8.07;;
68995;SDS011;56056;48.990;12.146;2023-01-19T04:26:31;63.47;;;55.13;;
68995;SDS011;56056;48.990;12.146;2023-01-19T04:28:57;46.63;;;35.27;;
68995;SDS011;56056;48.990;12.146;2023-01-19T04:31:22;57.08;;;50.78;;
68995;SDS011;56056;48.990;12.146;2023-01-19T04:33:48;38.67;;;34.63;;
68995;SDS011;56056;48.990;12.146;2023-01-19T04:36:14;9.43;;;7.10;;
68995;SDS011;56056;48.990;12.146;2023-01-19T04:38:41;16.10;;;14.40;;
68995;SDS011;56056;48.990;12.146;2023-01-19T04:41:06;15.00;;;10.83;;
68995;SDS011;56056;48.990;12.146;2023-01-19T04:43:32;28.27;;;25.83;;
68995;SDS011;56056;48.990;12.146;2023-01-19T04:45:58;10.33;;;7.87;;
68995;SDS011;56056;48.990;12.146;2023-01-19T04:48:24;47.53;;;42.60;;
68995;SDS011;56056;48.990;12.146;2023-01-19T04:50:49;23.50;;;10.47;;
68995;SDS011;56056;48.990;12.146;2023-01-19T04:53:16;34.87;;;19.40;;
68995;SDS011;56056;48.990;12.146;2023-01-19T04:55:43;61.80;;;56.00;;
68995;SDS011;56056;48.990;12.146;2023-01-19T04:58:10;69.15;;;62.50;;
68995;SDS011;56056;48.990;12.146;2023-01-19T05:00:36;17.80;;;9.30;;
68995;SDS011;56056;48.990;12.146;2023-01-19T05:03:02;73.57;;;66.23;;
68995;SDS011;56056;48.990;12.146;2023-01-19T05:05:28;73.47;;;66.80;;
68995;SDS011;56056;48.990;12.146;2023-01-19T05:07:54;16.70;;;15.00;;
68995;SDS011;56056;48.990;12.146;2023-01-19T05:10:20;32.13;;;24.40;;
68995;SDS011;56056;48.990;12.146;2023-01-19T05:12:47;92.80;;;82.77;;
68995;SDS011;56056;48.990;12.146;2023-01-19T05:15:13;8.40;;;6.47;;
68995;SDS011;56056;48.990;12.146;2023-01-19T05:17:39;41.90;;;29.83;;
68995;SDS011;56056;48.990;12.146;2023-01-19T05:20:05;31.90;;;28.60;;
68995;SDS011;56056;48.990;12.146;2023-01-19T05:22:33;38.53;;;27.40;;
68995;SDS011;56056;48.990;12.146;2023-01-19T05:24:58;16.07;;;14.73;;
68995;SDS011;56056;48.990;12.146;2023-01-19T05:27:25;23.17;;;19.07;;
68995;SDS011;56056;48.990;12.146;2023-01-19T05:29:52;96.63;;;88.70;;
68995;SDS011;56056;48.990;12.146;2023-01-19T05:32:18;83.00;;;76.67;;
68995;SDS011;56056;48.990;12.146;2023-01-19T05:34:43;76.60;;;69.07;;
68995;SDS011;56056;48.990;12.146;2023-01-19T05:37:10;75.97;;;69.33;;
68995;SDS011;56056;48.990;12.146;2023-01-19T05:39:35;35.87;;;33.10;;
68995;SDS011;56056;48.990;12.146;2023-01-19T05:42:01;44.20;;;40.17;;
68995;SDS011;56056;48.990;12.146;2023-01-19T05:44:27;43.07;;;39.53;;
68995;SDS011;56056;48.990;12.146;2023-01-19T05:46:54;30.50;;;21.73;;
68995;SDS011;56056;48.990;12.146;2023-01-19T05:49:20;114.80;;;104.40;;
68995;SDS011;56056;48.990;12.146;2023-01-19T05:51:45;118.33;;;108.70;;
68995;SDS011;56056;48.990;12.146;2023-01-19T05:54:12;54.27;;;48.87;;
68995;SDS011;56056;48.990;12.146;2023-01-19T05:56:41;127.87;;;117.93;;
68995;SDS011;56056;48.990;12.146;2023-01-19T05:59:07;59.73;;;54.43;;
68995;SDS011;56056;48.990;12.146;2023-01-19T06:01:33;54.30;;;49.50;;
68995;SDS011;56056;48.990;12.146;2023-01-19T06:04:00;30.70;;;27.50;;
68995;SDS011;56056;48.990;12.146;2023-01-19T06:06:26;26.67;;;24.23;;
68995;SDS011;56056;48.990;12.146;2023-01-19T06:08:52;67.33;;;61.20;;
68995;SDS011;56056;48.990;12.146;2023-01-19T06:11:17;55.10;;;47.20;;
68995;SDS011;56056;48.990;12.146;2023-01-19T06:13:43;60.10;;;55.57;;
68995;SDS011;56056;48.990;12.146;2023-01-19T06:16:09;58.90;;;53.80;;
68995;SDS011;56056;48.990;12.146;2023-01-19T06:18:35;62.30;;;57.30;;
68995;SDS011;56056;48.990;12.146;2023-01-19T06:21:04;36.23;;;33.40;;
68995;SDS011;56056;48.990;12.146;2023-01-19T06:23:31;62.47;;;57.43;;
68995;SDS011;56056;48.990;12.146;2023-01-19T06:25:57;32.63;;;29.33;;
68995;SDS011;56056;48.990;12.146;2023-01-19T06:28:23;46.73;;;43.10;;
68995;SDS011;56056;48.990;12.146;2023-01-19T06:30:49;114.63;;;103.33;;
68995;SDS011;56056;48.990;12.146;2023-01-19T06:33:15;42.60;;;38.47;;
68995;SDS011;56056;48.990;12.146;2023-01-19T06:35:41;33.97;;;30.00;;
68995;SDS011;56056;48.990;12.146;2023-01-19T06:38:08;48.10;;;43.53;;
68995;SDS011;56056;48.990;12.146;2023-01-19T06:40:34;89.80;;;82.47;;
68995;SDS011;56056;48.990;12.146;2023-01-19T06:43:00;200.17;;;187.13;;
68995;SDS011;56056;48.990;12.146;2023-01-19T06:45:25;29.00;;;26.70;;
68995;SDS011;56056;48.990;12.146;2023-01-19T06:47:51;43.20;;;39.97;;
68995;SDS011;56056;48.990;12.146;2023-01-19T06:50:17;128.67;;;117.87;;
68995;SDS011;56056;48.990;12.146;2023-01-19T06:52:42;53.10;;;48.67;;
68995;SDS011;56056;48.990;12.146;2023-01-19T06:55:10;47.53;;;43.23;;
68995;SDS011;56056;48.990;12.146;2023-01-19T06:57:36;87.37;;;80.63;;
68995;SDS011;56056;48.990;12.146;2023-01-19T07:00:03;275.97;;;250.30;;
68995;SDS011;56056;48.990;12.146;2023-01-19T07:02:31;58.07;;;53.73;;
68995;SDS011;56056;48.990;12.146;2023-01-19T07:04:57;110.53;;;101.93;;
68995;SDS011;56056;48.990;12.146;2023-01-19T07:07:23;94.20;;;87.30;;
68995;SDS011;56056;48.990;12.146;2023-01-19T07:09:49;204.13;;;188.30;;
68995;SDS011;56056;48.990;12.146;2023-01-19T07:12:16;90.90;;;83.83;;
68995;SDS011;56056;48.990;12.146;2023-01-19T07:14:42;151.73;;;138.40;;
68995;SDS011;56056;48.990;12.146;2023-01-19T07:17:08;170.17;;;156.67;;
68995;SDS011;56056;48.990;12.146;2023-01-19T07:19:33;50.43;;;47.17;;
68995;SDS011;56056;48.990;12.146;2023-01-19T07:21:59;46.60;;;43.40;;
68995;SDS011;56056;48.990;12.146;2023-01-19T07:24:25;49.00;;;45.67;;
68995;SDS011;56056;48.990;12.146;2023-01-19T07:26:51;87.30;;;80.37;;
68995;SDS011;56056;48.990;12.146;2023-01-19T07:29:18;78.20;;;71.67;;
68995;SDS011;56056;48.990;12.146;2023-01-19T07:31:44;66.93;;;62.30;;
68995;SDS011;56056;48.990;12.146;2023-01-19T07:34:12;63.80;;;57.70;;
68995;SDS011;56056;48.990;12.146;2023-01-19T07:36:38;58.53;;;53.67;;
68995;SDS011;56056;48.990;12.146;2023-01-19T07:39:04;52.10;;;46.70;;
68995;SDS011;56056;48.990;12.146;2023-01-19T07:41:29;50.17;;;44.07;;
68995;SDS011;56056;48.990;12.146;2023-01-19T07:43:55;44.23;;;37.37;;
68995;SDS011;56056;48.990;12.146;2023-01-19T07:46:22;33.13;;;28.50;;
68995;SDS011;56056;48.990;12.146;2023-01-19T07:48:47;59.20;;;54.03;;
68995;SDS011;56056;48.990;12.146;2023-01-19T07:51:14;86.03;;;78.60;;
68995;SDS011;56056;48.990;12.146;2023-01-19T07:53:42;19.17;;;17.20;;
68995;SDS011;56056;48.990;12.146;2023-01-19T07:56:08;14.40;;;13.20;;
68995;SDS011;56056;48.990;12.146;2023-01-19T07:58:34;15.73;;;14.03;;
68995;SDS011;56056;48.990;12.146;2023-01-19T08:01:04;19.10;;;17.10;;
68995;SDS011;56056;48.990;12.146;2023-01-19T08:03:31;66.53;;;60.10;;
68995;SDS011;56056;48.990;12.146;2023-01-19T08:05:57;79.80;;;73.63;;
68995;SDS011;56056;48.990;12.146;2023-01-19T08:08:23;14.70;;;13.23;;
68995;SDS011;56056;48.990;12.146;2023-01-19T08:10:49;6.70;;;4.47;;
68995;SDS011;56056;48.990;12.146;2023-01-19T08:13:15;10.40;;;9.60;;
68995;SDS011;56056;48.990;12.146;2023-01-19T08:15:41;19.10;;;17.17;;
68995;SDS011;56056;48.990;12.146;2023-01-19T08:18:08;18.13;;;16.63;;
68995;SDS011;56056;48.990;12.146;2023-01-19T08:20:36;22.60;;;21.00;;
68995;SDS011;56056;48.990;12.146;2023-01-19T08:23:02;40.43;;;22.47;;
68995;SDS011;56056;48.990;12.146;2023-01-19T08:25:31;10.50;;;9.63;;
68995;SDS011;56056;48.990;12.146;2023-01-19T08:27:57;24.13;;;16.57;;
68995;SDS011;56056;48.990;12.146;2023-01-19T08:30:23;9.63;;;7.33;;
68995;SDS011;56056;48.990;12.146;2023-01-19T08:32:50;4.63;;;4.20;;
68995;SDS011;56056;48.990;12.146;2023-01-19T08:35:16;22.57;;;20.33;;
68995;SDS011;56056;48.990;12.146;2023-01-19T08:37:43;11.80;;;9.10;;
68995;SDS011;56056;48.990;12.146;2023-01-19T08:40:10;54.07;;;42.87;;
68995;SDS011;56056;48.990;12.146;2023-01-19T08:42:36;6.27;;;5.73;;
68995;SDS011;56056;48.990;12.146;2023-01-19T08:45:01;17.38;;;9.57;;
68995;SDS011;56056;48.990;12.146;2023-01-19T08:47:28;36.55;;;27.17;;
68995;SDS011;56056;48.990;12.146;2023-01-19T08:49:53;12.80;;;11.57;;
68995;SDS011;56056;48.990;12.146;2023-01-19T08:52:19;21.25;;;11.38;;
68995;SDS011;56056;48.990;12.146;2023-01-19T08:54:46;21.52;;;10.27;;
68995;SDS011;56056;48.990;12.146;2023-01-19T08:57:12;12.60;;;8.00;;
68995;SDS011;56056;48.990;12.146;2023-01-19T08:59:38;15.07;;;7.93;;
68995;SDS011;56056;48.990;12.146;2023-01-19T09:02:04;3.33;;;3.03;;
68995;SDS011;56056;48.990;12.146;2023-01-19T09:04:30;2.72;;;2.55;;
68995;SDS011;56056;48.990;12.146;2023-01-19T09:06:58;32.00;;;10.38;;
68995;SDS011;56056;48.990;12.146;2023-01-19T09:09:24;116.50;;;59.63;;
68995;SDS011;56056;48.990;12.146;2023-01-19T09:11:50;20.83;;;14.45;;
68995;SDS011;56056;48.990;12.146;2023-01-19T09:14:17;14.70;;;11.85;;
68995;SDS011;56056;48.990;12.146;2023-01-19T09:16:43;19.15;;;12.10;;
68995;SDS011;56056;48.990;12.146;2023-01-19T09:19:09;32.58;;;15.65;;
68995;SDS011;56056;48.990;12.146;2023-01-19T09:21:34;18.20;;;14.48;;
68995;SDS011;56056;48.990;12.146;2023-01-19T09:24:01;18.38;;;14.13;;
68995;SDS011;56056;48.990;12.146;2023-01-19T09:26:26;25.02;;;15.40;;
68995;SDS011;56056;48.990;12.146;2023-01-19T09:28:53;29.88;;;18.90;;
68995;SDS011;56056;48.990;12.146;2023-01-19T09:31:19;36.33;;;20.45;;
68995;SDS011;56056;48.990;12.146;2023-01-19T09:33:45;103.90;;;50.88;;
68995;SDS011;56056;48.990;12.146;2023-01-19T09:36:10;27.90;;;17.05;;
68995;SDS011;56056;48.990;12.146;2023-01-19T09:38:36;18.13;;;9.90;;
68995;SDS011;56056;48.990;12.146;2023-01-19T09:41:02;20.10;;;13.27;;
68995;SDS011;56056;48.990;12.146;2023-01-19T09:43:31;27.65;;;14.48;;
68995;SDS011;56056;48.990;12.146;2023-01-19T09:46:01;25.90;;;18.13;;
68995;SDS011;56056;48.990;12.146;2023-01-19T09:48:29;24.50;;;11.50;;
68995;SDS011;56056;48.990;12.146;2023-01-19T09:50:59;18.17;;;11.15;;
68995;SDS011;56056;48.990;12.146;2023-01-19T09:53:32;23.25;;;10.93;;
68995;SDS011;56056;48.990;12.146;2023-01-19T09:56:04;22.10;;;10.13;;
68995;SDS011;56056;48.990;12.146;2023-01-19T09:58:34;30.50;;;21.25;;
68995;SDS011;56056;48.990;12.146;2023-01-19T10:01:04;39.03;;;17.63;;
68995;SDS011;56056;48.990;12.146;2023-01-19T10:03:39;27.17;;;17.67;;
68995;SDS011;56056;48.990;12.146;2023-01-19T10:06:06;40.28;;;9.57;;
68995;SDS011;56056;48.990;12.146;2023-01-19T10:08:35;35.17;;;15.63;;
68995;SDS011;56056;48.990;12.146;2023-01-19T10:11:04;30.08;;;10.90;;
68995;SDS011;56056;48.990;12.146;2023-01-19T10:13:40;14.35;;;12.88;;
68995;SDS011;56056;48.990;12.146;2023-01-19T10:16:17;21.50;;;12.02;;
68995;SDS011;56056;48.990;12.146;2023-01-19T10:18:49;8.52;;;5.35;;
68995;SDS011;56056;48.990;12.146;2023-01-19T10:21:17;20.02;;;12.30;;
68995;SDS011;56056;48.990;12.146;2023-01-19T10:23:45;44.92;;;18.95;;
68995;SDS011;56056;48.990;12.146;2023-01-19T10:26:14;30.25;;;12.82;;
68995;SDS011;56056;48.990;12.146;2023-01-19T10:28:41;18.90;;;7.88;;
68995;SDS011;56056;48.990;12.146;2023-01-19T10:31:08;43.78;;;21.10;;
68995;SDS011;56056;48.990;12.146;2023-01-19T10:33:35;756.78;;;235.63;;
68995;SDS011;56056;48.990;12.146;2023-01-19T10:36:04;45.58;;;24.95;;
68995;SDS011;56056;48.990;12.146;2023-01-19T10:38:34;26.42;;;14.38;;
68995;SDS011;56056;48.990;12.146;2023-01-19T10:41:00;88.57;;;53.35;;
68995;SDS011;56056;48.990;12.146;2023-01-19T10:43:39;86.05;;;50.75;;
68995;SDS011;56056;48.990;12.146;2023-01-19T10:46:07;115.35;;;69.55;;
68995;SDS011;56056;48.990;12.146;2023-01-19T10:48:42;157.15;;;95.50;;
68995;SDS011;56056;48.990;12.146;2023-01-19T10:51:09;265.33;;;105.30;;
68995;SDS011;56056;48.990;12.146;2023-01-19T10:53:35;314.55;;;181.05;;
68995;SDS011;56056;48.990;12.146;2023-01-19T10:56:11;194.35;;;120.78;;
68995;SDS011;56056;48.990;12.146;2023-01-19T10:58:39;598.45;;;273.20;;
68995;SDS011;56056;48.990;12.146;2023-01-19T11:01:11;190.38;;;104.65;;
68995;SDS011;56056;48.990;12.146;2023-01-19T11:03:38;260.80;;;117.05;;
68995;SDS011;56056;48.990;12.146;2023-01-19T11:06:18;153.60;;;82.60;;
68995;SDS011;56056;48.990;12.146;2023-01-19T11:08:45;308.80;;;190.10;;
68995;SDS011;56056;48.990;12.146;2023-01-19T11:11:12;544.60;;;263.50;;
68995;SDS011;56056;48.990;12.146;2023-01-19T11:13:38;683.85;;;334.83;;
68995;SDS011;56056;48.990;12.146;2023-01-19T11:16:04;1080.15;;;483.55;;
68995;SDS011;56056;48.990;12.146;2023-01-19T11:18:39;1671.72;;;626.47;;
68995;SDS011;56056;48.990;12.146;2023-01-19T11:21:06;1933.22;;;765.00;;
68995;SDS011;56056;48.990;12.146;2023-01-19T11:23:34;1874.55;;;765.33;;
68995;SDS011;56056;48.990;12.146;2023-01-19T11:26:07;1999.90;;;900.00;;
68995;SDS011;56056;48.990;12.146;2023-01-19T11:28:34;1999.90;;;935.35;;
68995;SDS011;56056;48.990;12.146;2023-01-19T11:31:02;1999.90;;;984.47;;
68995;SDS011;56056;48.990;12.146;2023-01-19T11:33:41;1999.90;;;815.88;;
68995;SDS011;56056;48.990;12.146;2023-01-19T11:36:14;1999.90;;;938.83;;
68995;SDS011;56056;48.990;12.146;2023-01-19T11:38:43;1985.40;;;826.97;;
68995;SDS011;56056;48.990;12.146;2023-01-19T11:41:15;1999.90;;;999.90;;
68995;SDS011;56056;48.990;12.146;2023-01-19T11:43:42;1999.90;;;940.67;;
68995;SDS011;56056;48.990;12.146;2023-01-19T11:46:08;1999.90;;;999.90;;
68995;SDS011;56056;48.990;12.146;2023-01-19T11:48:38;1819.50;;;614.88;;
68995;SDS011;56056;48.990;12.146;2023-01-19T11:51:09;1999.90;;;999.90;;
68995;SDS011;56056;48.990;12.146;2023-01-19T11:53:38;1999.90;;;999.90;;
68995;SDS011;56056;48.990;12.146;2023-01-19T11:56:09;1999.90;;;999.90;;
68995;SDS011;56056;48.990;12.146;2023-01-19T11:58:36;1999.90;;;999.90;;
68995;SDS011;56056;48.990;12.146;2023-01-19T12:01:05;1999.90;;;492.25;;
68995;SDS011;56056;48.990;12.146;2023-01-19T12:03:33;1999.90;;;999.90;;
68995;SDS011;56056;48.990;12.146;2023-01-19T12:06:03;1999.90;;;994.90;;
68995;SDS011;56056;48.990;12.146;2023-01-19T12:08:32;1999.90;;;999.90;;
68995;SDS011;56056;48.990;12.146;2023-01-19T12:11:01;1999.90;;;999.90;;
68995;SDS011;56056;48.990;12.146;2023-01-19T12:13:28;1999.90;;;999.90;;
68995;SDS011;56056;48.990;12.146;2023-01-19T12:15:56;1999.90;;;999.90;;
68995;SDS011;56056;48.990;12.146;2023-01-19T12:18:25;1999.90;;;999.90;;
68995;SDS011;56056;48.990;12.146;2023-01-19T12:20:53;1999.90;;;999.90;;
68995;SDS011;56056;48.990;12.146;2023-01-19T12:23:22;1999.90;;;999.90;;
68995;SDS011;56056;48.990;12.146;2023-01-19T12:25:57;1999.90;;;999.90;;
68995;SDS011;56056;48.990;12.146;2023-01-19T12:28:32;1999.90;;;999.90;;
68995;SDS011;56056;48.990;12.146;2023-01-19T12:31:01;1999.90;;;999.90;;
68995;SDS011;56056;48.990;12.146;2023-01-19T12:33:31;1999.90;;;999.90;;
68995;SDS011;56056;48.990;12.146;2023-01-19T12:36:02;1271.10;;;632.60;;
68995;SDS011;56056;48.990;12.146;2023-01-19T12:38:43;1999.90;;;921.65;;
68995;SDS011;56056;48.990;12.146;2023-01-19T12:41:15;1999.90;;;889.08;;
68995;SDS011;56056;48.990;12.146;2023-01-19T12:46:55;1715.78;;;705.33;;
68995;SDS011;56056;48.990;12.146;2023-01-19T12:49:27;1685.07;;;632.85;;
68995;SDS011;56056;48.990;12.146;2023-01-19T12:52:09;521.50;;;337.45;;
68995;SDS011;56056;48.990;12.146;2023-01-19T12:54:39;1999.90;;;906.88;;
68995;SDS011;56056;48.990;12.146;2023-01-19T12:57:08;1999.90;;;383.08;;
68995;SDS011;56056;48.990;12.146;2023-01-19T12:59:42;423.08;;;242.68;;
68995;SDS011;56056;48.990;12.146;2023-01-19T13:05:09;89.50;;;79.80;;
68995;SDS011;56056;48.990;12.146;2023-01-19T13:13:39;74.03;;;37.75;;
68995;SDS011;56056;48.990;12.146;2023-01-19T13:19:11;20.45;;;18.50;;
68995;SDS011;56056;48.990;12.146;2023-01-19T13:21:39;21.67;;;19.63;;
68995;SDS011;56056;48.990;12.146;2023-01-19T13:24:09;26.27;;;23.58;;
68995;SDS011;56056;48.990;12.146;2023-01-19T13:26:36;32.35;;;28.90;;
68995;SDS011;56056;48.990;12.146;2023-01-19T13:29:04;23.85;;;21.42;;
68995;SDS011;56056;48.990;12.146;2023-01-19T13:31:32;32.30;;;29.23;;
68995;SDS011;56056;48.990;12.146;2023-01-19T13:33:59;23.13;;;20.73;;
68995;SDS011;56056;48.990;12.146;2023-01-19T13:36:26;36.97;;;25.00;;
68995;SDS011;56056;48.990;12.146;2023-01-19T13:38:53;29.45;;;14.68;;
68995;SDS011;56056;48.990;12.146;2023-01-19T13:41:20;30.73;;;13.85;;
68995;SDS011;56056;48.990;12.146;2023-01-19T13:43:48;27.73;;;17.25;;
68995;SDS011;56056;48.990;12.146;2023-01-19T13:46:20;46.50;;;24.88;;
68995;SDS011;56056;48.990;12.146;2023-01-19T13:48:51;35.22;;;28.65;;
68995;SDS011;56056;48.990;12.146;2023-01-19T13:51:19;38.40;;;29.02;;
68995;SDS011;56056;48.990;12.146;2023-01-19T13:53:51;54.50;;;41.83;;
68995;SDS011;56056;48.990;12.146;2023-01-19T13:56:18;38.50;;;19.60;;
68995;SDS011;56056;48.990;12.146;2023-01-19T13:58:58;32.53;;;13.68;;
68995;SDS011;56056;48.990;12.146;2023-01-19T14:01:27;69.88;;;24.55;;
68995;SDS011;56056;48.990;12.146;2023-01-19T14:03:55;22.45;;;10.15;;
68995;SDS011;56056;48.990;12.146;2023-01-19T14:06:21;62.50;;;29.40;;
68995;SDS011;56056;48.990;12.146;2023-01-19T14:11:41;5.78;;;5.25;;
68995;SDS011;56056;48.990;12.146;2023-01-19T14:14:20;25.00;;;15.60;;
68995;SDS011;56056;48.990;12.146;2023-01-19T14:16:48;103.22;;;82.95;;
68995;SDS011;56056;48.990;12.146;2023-01-19T14:19:14;52.05;;;39.22;;
68995;SDS011;56056;48.990;12.146;2023-01-19T14:21:40;39.60;;;21.43;;
68995;SDS011;56056;48.990;12.146;2023-01-19T14:24:06;378.08;;;82.57;;
68995;SDS011;56056;48.990;12.146;2023-01-19T14:26:40;9.18;;;5.03;;
68995;SDS011;56056;48.990;12.146;2023-01-19T14:29:18;17.25;;;10.15;;
68995;SDS011;56056;48.990;12.146;2023-01-19T14:31:49;19.60;;;11.45;;